Time;durP1;ratioP1;P1;durP2;ratioP2;P2;SDS_P1;SDS_P2;PMS_P1;PMS_P2;Temp;Humidity;BMP_temperature;BMP_pressure;BME280_temperature;BME280_humidity;BME280_pressure;Samples;Min_cycle;Max_cycle;Signal;HPM_P1;HPM_P2
2022/10/10 00:01:11;;;;;;;10.30;8.73;;;9.80;99.90;;;;;;5017844;28;39231;-76
2022/10/10 00:03:38;;;;;;;12.70;8.73;;;9.80;99.90;;;;;;4994653;28;37863;-78
2022/10/10 00:06:04;;;;;;;13.40;8.77;;;9.80;99.90;;;;;;4996729;28;38859;-78
2022/10/10 00:08:30;;;;;;;11.23;8.13;;;9.70;99.90;;;;;;5014218;28;38743;-78
2022/10/10 00:10:56;;;;;;;15.77;9.80;;;9.70;99.90;;;;;;5001878;28;37772;-78
2022/10/10 00:13:22;;;;;;;12.90;8.67;;;9.70;99.90;;;;;;5007694;28;39460;-77
2022/10/10 00:15:48;;;;;;;15.48;9.25;;;9.70;99.90;;;;;;5015563;28;39685;-77
2022/10/10 00:18:15;;;;;;;11.33;8.27;;;9.70;99.90;;;;;;5005879;28;38140;-79
2022/10/10 00:20:41;;;;;;;11.73;8.30;;;9.70;99.90;;;;;;4994587;28;35717;-78
2022/10/10 00:23:07;;;;;;;13.20;8.87;;;9.60;99.90;;;;;;4997030;28;39703;-78
2022/10/10 00:25:35;;;;;;;12.37;9.57;;;9.60;99.90;;;;;;5008340;28;39854;-78
2022/10/10 00:28:02;;;;;;;15.53;9.97;;;9.60;99.90;;;;;;4995470;28;38578;-78
2022/10/10 00:30:29;;;;;;;13.17;9.47;;;9.60;99.90;;;;;;5010772;28;47784;-78
2022/10/10 00:32:57;;;;;;;13.60;9.77;;;9.50;99.90;;;;;;4989146;28;39227;-78
2022/10/10 00:35:24;;;;;;;15.10;10.53;;;9.50;99.90;;;;;;4990276;28;38164;-78
2022/10/10 00:37:50;;;;;;;18.27;11.07;;;9.50;99.90;;;;;;4985870;28;37325;-78
2022/10/10 00:40:16;;;;;;;14.97;9.47;;;9.40;99.90;;;;;;4991985;28;38057;-79
2022/10/10 00:42:42;;;;;;;12.60;9.30;;;9.40;99.90;;;;;;4991009;28;40503;-78
2022/10/10 00:45:28;;;;;;;17.10;10.02;;;9.30;99.90;;;;;;5009545;28;38734;-78
2022/10/10 00:48:05;;;;;;;12.90;9.23;;;9.30;99.90;;;;;;4995028;28;39732;-78
2022/10/10 00:50:37;;;;;;;15.77;9.97;;;9.30;99.90;;;;;;4987475;28;47312;-78
2022/10/10 00:53:07;;;;;;;12.63;9.80;;;9.30;99.90;;;;;;5000697;28;39293;-79
2022/10/10 00:55:34;;;;;;;12.97;10.37;;;9.30;99.90;;;;;;5005139;28;38469;-78
2022/10/10 00:58:02;;;;;;;13.73;9.77;;;9.30;99.90;;;;;;5013303;28;37325;-78
2022/10/10 01:03:04;;;;;;;12.53;10.03;;;9.20;99.90;;;;;;5361365;23;20103;-80
2022/10/10 01:05:31;;;;;;;12.70;9.23;;;9.20;99.90;;;;;;5021232;28;37191;-81
2022/10/10 01:07:58;;;;;;;15.90;11.53;;;9.20;99.90;;;;;;5020664;28;38575;-80
2022/10/10 01:10:25;;;;;;;12.07;10.57;;;9.10;99.90;;;;;;5012701;28;36106;-80
2022/10/10 01:13:29;;;;;;;15.50;11.30;;;9.10;99.90;;;;;;5020286;28;39950;-80
2022/10/10 01:16:11;;;;;;;14.60;9.00;;;9.10;99.90;;;;;;4954523;28;47216;-80
2022/10/10 01:19:12;;;;;;;15.70;8.97;;;9.10;99.90;;;;;;5032593;28;49596;-80
2022/10/10 01:22:01;;;;;;;14.77;11.23;;;9.10;99.90;;;;;;4975137;28;49283;-80
2022/10/10 01:24:53;;;;;;;22.80;12.87;;;9.10;99.90;;;;;;5040091;28;48850;-80
2022/10/10 01:27:25;;;;;;;18.33;12.07;;;9.20;99.90;;;;;;5024279;28;39030;-80
2022/10/10 01:30:08;;;;;;;14.27;10.55;;;9.20;99.90;;;;;;5046043;28;38130;-80
2022/10/10 01:33:07;;;;;;;17.43;11.80;;;9.20;99.90;;;;;;5028218;28;46852;-80
2022/10/10 01:35:57;;;;;;;21.50;11.20;;;9.20;99.90;;;;;;5023037;28;46896;-80
2022/10/10 01:38:36;;;;;;;17.17;10.77;;;9.20;99.90;;;;;;5013886;28;38822;-79
2022/10/10 01:41:09;;;;;;;18.57;12.93;;;9.30;99.90;;;;;;5015631;28;37199;-80
2022/10/10 01:43:36;;;;;;;16.67;11.40;;;9.20;99.90;;;;;;5037067;28;49160;-81
2022/10/10 01:46:15;;;;;;;18.73;11.03;;;9.20;99.90;;;;;;5021633;28;39667;-79
2022/10/10 01:48:44;;;;;;;12.73;10.70;;;9.20;99.90;;;;;;5008334;28;47247;-80
2022/10/10 01:51:19;;;;;;;18.17;11.90;;;9.20;99.90;;;;;;5048316;28;38481;-80
2022/10/10 01:53:49;;;;;;;13.73;11.00;;;9.10;99.90;;;;;;5018984;28;37922;-80
2022/10/10 01:56:35;;;;;;;15.87;11.37;;;9.20;99.90;;;;;;5021407;28;39569;-80
2022/10/10 01:59:14;;;;;;;18.60;11.63;;;9.10;99.90;;;;;;5041584;28;37111;-80
2022/10/10 02:02:07;;;;;;;17.20;11.37;;;9.10;99.90;;;;;;5010964;28;47057;-80
2022/10/10 02:04:44;;;;;;;22.70;13.17;;;9.20;99.90;;;;;;5014513;28;47102;-80
2022/10/10 02:07:18;;;;;;;18.77;11.13;;;9.20;99.90;;;;;;5015557;28;39449;-80
2022/10/10 02:09:48;;;;;;;13.87;10.40;;;9.20;99.90;;;;;;5036497;28;38652;-80
2022/10/10 02:12:14;;;;;;;15.13;10.57;;;9.20;99.90;;;;;;5024942;28;38557;-80
2022/10/10 02:14:45;;;;;;;16.73;11.27;;;9.20;99.90;;;;;;5015536;28;38403;-80
2022/10/10 02:17:14;;;;;;;14.97;10.43;;;9.20;99.90;;;;;;5030706;28;39779;-79
2022/10/10 02:19:49;;;;;;;16.33;11.33;;;9.20;99.90;;;;;;5012019;28;40012;-79
2022/10/10 02:22:17;;;;;;;14.80;10.70;;;9.20;99.90;;;;;;5011727;28;39615;-80
2022/10/10 02:24:43;;;;;;;20.53;11.50;;;9.20;99.90;;;;;;5035514;28;37476;-80
2022/10/10 02:27:20;;;;;;;20.80;12.03;;;9.20;99.90;;;;;;5036876;28;38679;-80
2022/10/10 02:29:48;;;;;;;16.73;10.87;;;9.10;99.90;;;;;;5039392;28;38974;-80
2022/10/10 02:32:18;;;;;;;17.57;10.37;;;9.00;99.90;;;;;;5017969;28;38535;-80
2022/10/10 02:34:50;;;;;;;13.57;9.73;;;9.00;99.90;;;;;;5020469;28;38393;-80
2022/10/10 02:37:17;;;;;;;14.57;12.20;;;9.00;99.90;;;;;;5026042;28;38614;-80
2022/10/10 02:39:47;;;;;;;20.17;10.77;;;9.00;99.90;;;;;;5021681;28;38488;-81
2022/10/10 02:42:22;;;;;;;18.87;12.13;;;9.00;99.90;;;;;;5046010;28;38152;-80
2022/10/10 02:44:50;;;;;;;13.63;9.20;;;9.00;99.90;;;;;;5037459;28;37957;-80
2022/10/10 02:47:16;;;;;;;14.27;10.03;;;9.00;99.90;;;;;;5045620;28;39245;-80
2022/10/10 02:49:43;;;;;;;16.60;10.87;;;9.00;99.90;;;;;;5033950;28;38905;-79
2022/10/10 02:52:12;;;;;;;15.67;10.80;;;9.10;99.90;;;;;;5038814;28;38589;-80
2022/10/10 02:54:38;;;;;;;15.17;10.47;;;9.10;99.90;;;;;;5052034;28;37359;-80
2022/10/10 02:57:04;;;;;;;16.50;10.57;;;9.10;99.90;;;;;;5022718;28;39281;-80
2022/10/10 02:59:30;;;;;;;15.80;10.00;;;9.10;99.90;;;;;;5022129;28;38471;-78
2022/10/10 03:01:56;;;;;;;17.83;10.83;;;9.10;99.90;;;;;;5024045;28;38826;-81
2022/10/10 03:04:29;;;;;;;15.73;10.93;;;9.20;99.90;;;;;;5027281;28;36256;-81
2022/10/10 03:06:55;;;;;;;14.63;9.50;;;9.20;99.90;;;;;;5043785;28;39897;-80
2022/10/10 03:09:22;;;;;;;14.93;10.23;;;9.20;99.90;;;;;;5021321;28;37460;-81
2022/10/10 03:11:49;;;;;;;15.80;9.80;;;9.20;99.90;;;;;;5020550;28;35352;-79
2022/10/10 03:14:15;;;;;;;17.37;9.53;;;9.20;99.90;;;;;;5023089;28;35936;-81
2022/10/10 03:16:41;;;;;;;19.23;10.30;;;9.20;99.90;;;;;;5024757;28;39194;-80
2022/10/10 03:19:07;;;;;;;13.27;9.47;;;9.20;99.90;;;;;;5018499;28;36046;-80
2022/10/10 03:21:34;;;;;;;18.63;10.87;;;9.20;99.90;;;;;;5034781;28;38885;-80
2022/10/10 03:24:01;;;;;;;13.77;9.20;;;9.20;99.90;;;;;;5029663;28;36740;-80
2022/10/10 03:26:27;;;;;;;16.30;10.70;;;9.20;99.90;;;;;;5036565;28;40903;-80
2022/10/10 03:28:53;;;;;;;13.03;9.43;;;9.10;99.90;;;;;;5038518;28;39830;-80
2022/10/10 03:31:19;;;;;;;16.03;10.10;;;9.10;99.90;;;;;;5025115;28;36652;-81
2022/10/10 03:33:45;;;;;;;16.23;10.87;;;9.10;99.90;;;;;;5026783;28;37223;-79
2022/10/10 03:36:11;;;;;;;15.47;9.77;;;9.10;99.90;;;;;;5029030;28;37718;-79
2022/10/10 03:38:39;;;;;;;17.50;10.83;;;9.10;99.90;;;;;;5035801;28;39269;-80
2022/10/10 03:41:05;;;;;;;17.73;11.13;;;9.10;99.90;;;;;;5019770;28;37043;-79
2022/10/10 03:43:32;;;;;;;16.17;10.47;;;9.10;99.90;;;;;;5039039;28;37176;-80
2022/10/10 03:45:58;;;;;;;12.87;8.63;;;9.10;99.90;;;;;;5031752;28;39133;-80
2022/10/10 03:48:24;;;;;;;15.47;10.47;;;9.10;99.90;;;;;;5031638;28;38618;-81
2022/10/10 03:50:50;;;;;;;17.10;10.00;;;9.10;99.90;;;;;;5018886;28;38184;-79
2022/10/10 03:53:16;;;;;;;16.83;9.70;;;9.00;99.90;;;;;;5015726;28;37538;-79
2022/10/10 03:55:43;;;;;;;13.20;9.00;;;9.10;99.90;;;;;;5033178;28;40081;-79
2022/10/10 03:58:09;;;;;;;16.30;8.87;;;9.10;99.90;;;;;;5009446;28;37233;-79
2022/10/10 04:00:38;;;;;;;21.67;10.53;;;9.10;99.90;;;;;;5023137;28;37070;-80
2022/10/10 04:03:05;;;;;;;16.40;10.73;;;9.10;99.90;;;;;;5035132;28;37188;-80
2022/10/10 04:05:34;;;;;;;20.63;10.37;;;9.00;99.90;;;;;;5030223;28;39456;-79
2022/10/10 04:08:01;;;;;;;14.93;9.73;;;9.00;99.90;;;;;;5018756;28;40191;-80
2022/10/10 04:10:27;;;;;;;13.87;8.93;;;9.00;99.90;;;;;;5010358;28;37076;-80
2022/10/10 04:12:53;;;;;;;13.80;10.07;;;9.00;99.90;;;;;;5037430;28;38513;-80
2022/10/10 04:15:19;;;;;;;12.63;9.23;;;9.00;99.90;;;;;;5031725;28;38590;-79
2022/10/10 04:17:45;;;;;;;22.97;12.57;;;9.00;99.90;;;;;;5030279;28;38657;-79
2022/10/10 04:20:11;;;;;;;17.17;10.23;;;8.90;99.90;;;;;;5027188;28;36825;-80
2022/10/10 04:22:37;;;;;;;14.97;10.40;;;8.90;99.90;;;;;;5047921;28;38200;-80
2022/10/10 04:25:04;;;;;;;10.23;8.67;;;8.90;99.90;;;;;;5028481;28;39648;-80
2022/10/10 04:27:30;;;;;;;10.87;8.47;;;8.90;99.90;;;;;;5041173;28;49262;-80
2022/10/10 04:30:22;;;;;;;16.10;11.07;;;8.90;99.90;;;;;;5031469;28;37458;-79
2022/10/10 04:32:48;;;;;;;15.43;10.07;;;8.80;99.90;;;;;;5011411;28;46346;-80
2022/10/10 04:35:14;;;;;;;15.90;12.07;;;8.90;99.90;;;;;;5032887;28;39274;-79
2022/10/10 04:37:40;;;;;;;16.77;11.00;;;8.90;99.90;;;;;;5013019;28;38342;-79
2022/10/10 04:40:07;;;;;;;16.40;11.10;;;8.90;99.90;;;;;;5019594;28;38563;-79
2022/10/10 04:42:33;;;;;;;20.27;12.10;;;8.90;99.90;;;;;;5037708;28;36796;-80
2022/10/10 04:44:59;;;;;;;16.13;11.53;;;8.90;99.90;;;;;;5029715;28;38611;-80
2022/10/10 04:47:25;;;;;;;18.47;11.83;;;8.90;99.90;;;;;;5014549;28;37062;-80
2022/10/10 04:49:51;;;;;;;20.37;11.70;;;8.90;99.90;;;;;;5045870;28;38938;-80
2022/10/10 04:52:17;;;;;;;20.90;11.53;;;8.90;99.90;;;;;;5020049;28;36666;-80
2022/10/10 04:54:43;;;;;;;16.17;10.90;;;8.90;99.90;;;;;;5027816;28;37079;-80
2022/10/10 04:57:10;;;;;;;24.80;10.90;;;8.90;99.90;;;;;;5049641;28;41259;-80
2022/10/10 04:59:37;;;;;;;18.87;11.63;;;8.90;99.90;;;;;;5035895;28;38233;-79
2022/10/10 05:02:05;;;;;;;17.10;10.90;;;8.90;99.90;;;;;;5043188;28;37808;-80
2022/10/10 05:04:39;;;;;;;13.53;10.53;;;8.90;99.90;;;;;;5028139;28;37866;-80
2022/10/10 05:07:05;;;;;;;17.20;10.40;;;8.90;99.90;;;;;;5028178;28;37730;-79
2022/10/10 05:09:32;;;;;;;22.13;11.77;;;8.90;99.90;;;;;;5031986;28;36719;-79
2022/10/10 05:11:59;;;;;;;17.57;10.87;;;8.90;99.90;;;;;;5028585;28;37935;-79
2022/10/10 05:14:29;;;;;;;19.00;11.53;;;8.90;99.90;;;;;;5019429;28;39413;-79
2022/10/10 05:16:56;;;;;;;21.33;13.13;;;8.90;99.90;;;;;;5039010;28;38846;-79
2022/10/10 05:19:25;;;;;;;17.73;11.90;;;8.90;99.90;;;;;;5025166;28;35371;-80
2022/10/10 05:21:52;;;;;;;16.80;11.20;;;8.90;99.90;;;;;;5025142;28;36738;-80
2022/10/10 05:24:19;;;;;;;16.73;11.57;;;8.80;99.90;;;;;;5031663;28;38864;-79
2022/10/10 05:26:46;;;;;;;22.33;11.80;;;8.80;99.90;;;;;;5026393;28;37474;-79
2022/10/10 05:29:13;;;;;;;21.23;12.37;;;8.80;99.90;;;;;;5040081;28;38654;-79
2022/10/10 05:31:39;;;;;;;18.80;11.23;;;8.80;99.90;;;;;;5022559;23;38057;-77
2022/10/10 05:34:05;;;;;;;17.20;12.57;;;8.70;99.90;;;;;;4998139;28;38675;-77
2022/10/10 05:36:31;;;;;;;15.80;10.80;;;8.70;99.90;;;;;;5003710;28;38307;-78
2022/10/10 05:39:00;;;;;;;19.60;11.07;;;8.80;99.90;;;;;;4999754;28;38123;-78
2022/10/10 05:41:26;;;;;;;17.83;11.13;;;8.80;99.90;;;;;;4987586;28;37367;-78
2022/10/10 05:43:52;;;;;;;18.10;11.97;;;8.80;99.90;;;;;;5003738;28;38734;-78
2022/10/10 05:46:20;;;;;;;18.20;11.60;;;8.80;99.90;;;;;;5002649;28;36721;-77
2022/10/10 05:48:47;;;;;;;14.37;10.10;;;8.80;99.90;;;;;;5008664;28;38124;-78
2022/10/10 05:51:13;;;;;;;18.57;12.47;;;8.80;99.90;;;;;;5009993;28;37552;-78
2022/10/10 05:53:39;;;;;;;21.43;12.43;;;8.80;99.90;;;;;;5002882;28;38721;-79
2022/10/10 05:56:05;;;;;;;16.83;13.43;;;8.80;99.90;;;;;;5004633;28;35362;-78
2022/10/10 05:58:31;;;;;;;19.53;12.07;;;8.80;99.90;;;;;;5002397;28;39026;-78
2022/10/10 06:01:03;;;;;;;26.17;13.40;;;8.80;99.90;;;;;;5004967;28;37292;-78
2022/10/10 06:03:29;;;;;;;20.83;12.70;;;8.80;99.90;;;;;;4991128;28;37755;-78
2022/10/10 06:05:55;;;;;;;42.57;13.87;;;8.80;99.90;;;;;;5011562;28;39048;-78
2022/10/10 06:08:22;;;;;;;25.60;14.00;;;8.80;99.90;;;;;;4985393;28;36938;-79
2022/10/10 06:10:48;;;;;;;26.93;15.10;;;8.80;99.90;;;;;;5002140;23;36456;-78
2022/10/10 06:13:15;;;;;;;24.13;13.43;;;8.90;99.90;;;;;;4973760;28;37206;-78
2022/10/10 06:15:42;;;;;;;25.73;13.23;;;9.00;99.90;;;;;;4966894;28;38268;-77
2022/10/10 06:18:08;;;;;;;15.50;10.70;;;8.90;99.90;;;;;;4966010;28;37630;-77
2022/10/10 06:20:39;;;;;;;18.00;12.47;;;9.00;99.90;;;;;;4969516;28;39354;-77
2022/10/10 06:23:07;;;;;;;27.03;12.93;;;8.90;99.90;;;;;;4986589;28;39080;-77
2022/10/10 06:25:34;;;;;;;15.50;9.83;;;9.00;99.90;;;;;;4990355;28;38489;-77
2022/10/10 06:28:01;;;;;;;19.27;11.13;;;9.00;99.90;;;;;;4983296;28;37860;-77
2022/10/10 06:30:27;;;;;;;21.83;12.13;;;9.00;99.90;;;;;;4963677;28;37779;-77
2022/10/10 06:32:53;;;;;;;14.70;10.63;;;9.10;99.90;;;;;;4990974;28;38590;-77
2022/10/10 06:35:19;;;;;;;16.13;10.87;;;9.10;99.90;;;;;;4985269;28;38129;-77
2022/10/10 06:37:45;;;;;;;18.57;12.17;;;9.10;99.90;;;;;;4967913;28;38231;-78
2022/10/10 06:40:12;;;;;;;14.80;10.80;;;9.20;99.90;;;;;;4992019;28;37490;-78
2022/10/10 06:42:38;;;;;;;15.73;11.07;;;9.20;99.90;;;;;;4980661;28;38635;-78
2022/10/10 06:45:04;;;;;;;17.80;11.80;;;9.30;99.90;;;;;;4981361;28;38065;-77
2022/10/10 06:47:30;;;;;;;21.17;11.87;;;9.30;99.90;;;;;;4983684;28;38096;-78
2022/10/10 06:49:56;;;;;;;17.50;10.53;;;9.40;99.90;;;;;;4966312;28;39090;-77
2022/10/10 06:52:23;;;;;;;20.77;11.07;;;9.40;99.90;;;;;;4982534;28;39023;-77
2022/10/10 06:54:49;;;;;;;15.67;11.70;;;9.40;99.90;;;;;;4987366;28;39819;-77
2022/10/10 06:57:15;;;;;;;27.97;12.70;;;9.50;99.90;;;;;;4969911;28;37854;-77
2022/10/10 06:59:41;;;;;;;17.97;9.77;;;9.50;99.90;;;;;;4971216;28;38124;-78
2022/10/10 07:02:11;;;;;;;27.07;12.77;;;9.60;99.90;;;;;;4968847;28;39040;-77
2022/10/10 07:04:37;;;;;;;17.63;10.43;;;9.60;99.90;;;;;;4984312;28;39232;-77
2022/10/10 07:07:03;;;;;;;16.63;11.13;;;9.60;99.90;;;;;;4982871;28;39137;-77
2022/10/10 07:09:29;;;;;;;27.13;12.00;;;9.70;99.90;;;;;;4961111;28;39306;-77
2022/10/10 07:11:55;;;;;;;17.88;11.00;;;9.70;99.90;;;;;;4993478;28;38950;-79
2022/10/10 07:14:23;;;;;;;16.57;11.77;;;9.80;99.90;;;;;;4972646;28;39867;-78
2022/10/10 07:16:49;;;;;;;15.40;9.83;;;9.80;99.90;;;;;;4990047;28;38837;-78
2022/10/10 07:19:15;;;;;;;19.20;10.13;;;9.90;99.90;;;;;;4985959;28;38094;-78
2022/10/10 07:21:41;;;;;;;22.58;11.43;;;9.90;99.90;;;;;;4984236;28;38318;-78
2022/10/10 07:24:07;;;;;;;20.33;11.00;;;10.00;99.90;;;;;;4989191;28;38544;-79
2022/10/10 07:26:37;;;;;;;20.67;10.95;;;10.10;99.90;;;;;;4968813;28;38940;-79
2022/10/10 07:29:04;;;;;;;15.90;9.73;;;10.10;99.90;;;;;;4972995;28;38026;-78
2022/10/10 07:31:31;;;;;;;15.93;11.05;;;10.20;99.90;;;;;;4984128;28;49090;-79
2022/10/10 07:33:57;;;;;;;15.82;9.85;;;10.40;99.90;;;;;;4974243;28;38637;-78
2022/10/10 07:36:23;;;;;;;16.15;10.07;;;10.50;99.90;;;;;;4990026;28;37881;-78
2022/10/10 07:38:53;;;;;;;16.50;10.50;;;10.60;99.90;;;;;;4991433;28;38103;-78
2022/10/10 07:41:21;;;;;;;16.80;10.20;;;10.70;99.90;;;;;;4975488;28;20550;-78
2022/10/10 07:43:52;;;;;;;14.27;9.25;;;10.90;99.90;;;;;;4969080;28;38627;-79
2022/10/10 07:46:19;;;;;;;14.45;8.80;;;11.10;99.90;;;;;;4982310;28;37888;-79
2022/10/10 07:48:45;;;;;;;13.18;9.23;;;11.20;99.90;;;;;;4981505;28;37584;-79
2022/10/10 07:51:11;;;;;;;16.33;9.77;;;11.40;99.90;;;;;;4989185;28;38661;-80
2022/10/10 07:53:38;;;;;;;15.88;8.50;;;11.60;99.90;;;;;;4973289;28;39985;-78
2022/10/10 07:56:08;;;;;;;14.57;9.52;;;11.70;99.90;;;;;;4993167;28;38672;-78
2022/10/10 07:58:35;;;;;;;15.45;7.93;;;11.80;99.90;;;;;;4979316;28;47206;-78
2022/10/10 08:01:06;;;;;;;12.88;7.50;;;11.80;99.90;;;;;;4969265;28;37673;-78
2022/10/10 08:03:32;;;;;;;16.55;8.82;;;11.90;99.90;;;;;;4962427;28;47163;-77
2022/10/10 08:06:03;;;;;;;14.35;7.88;;;11.90;99.90;;;;;;4969556;28;38980;-77
2022/10/10 08:08:29;;;;;;;13.40;8.50;;;12.00;99.90;;;;;;4988205;28;37949;-78
2022/10/10 08:10:56;;;;;;;12.52;7.68;;;12.10;99.90;;;;;;4992386;28;38608;-78
2022/10/10 08:13:23;;;;;;;15.98;8.50;;;12.20;99.90;;;;;;4995802;28;38455;-78
2022/10/10 08:15:50;;;;;;;14.27;9.13;;;12.30;99.90;;;;;;4977799;28;38841;-77
2022/10/10 08:18:17;;;;;;;13.80;8.15;;;12.40;99.90;;;;;;4988101;28;36980;-76
2022/10/10 08:20:43;;;;;;;13.85;7.55;;;12.40;99.90;;;;;;4975717;28;37780;-77
2022/10/10 08:23:09;;;;;;;15.43;7.78;;;12.40;99.90;;;;;;4973467;28;39474;-78
2022/10/10 08:25:35;;;;;;;10.40;7.32;;;12.40;99.90;;;;;;4992045;28;38864;-76
2022/10/10 08:28:07;;;;;;;12.88;7.10;;;12.50;99.90;;;;;;4993559;28;36966;-77
2022/10/10 08:30:40;;;;;;;12.13;7.53;;;12.60;99.90;;;;;;5001640;28;45564;-77
2022/10/10 08:33:06;;;;;;;12.95;7.30;;;12.70;99.90;;;;;;4973354;28;38965;-79
2022/10/10 08:35:41;;;;;;;12.13;6.88;;;12.70;99.90;;;;;;4973876;28;38232;-78
2022/10/10 08:38:11;;;;;;;17.45;7.13;;;12.90;99.90;;;;;;4972092;28;37554;-79
2022/10/10 08:40:43;;;;;;;11.95;7.03;;;12.90;99.90;;;;;;4989329;28;39031;-78
2022/10/10 08:43:22;;;;;;;13.27;6.72;;;13.00;99.90;;;;;;4975476;28;39447;-77
2022/10/10 08:45:51;;;;;;;11.75;6.45;;;13.00;99.90;;;;;;4993176;28;39086;-78
2022/10/10 08:48:31;;;;;;;12.80;6.97;;;13.10;99.90;;;;;;4988408;28;38313;-81
2022/10/10 08:51:10;;;;;;;15.25;6.78;;;13.20;99.90;;;;;;4984827;28;37437;-77
2022/10/10 08:53:50;;;;;;;11.77;6.90;;;13.10;99.90;;;;;;4972531;28;45966;-77
2022/10/10 08:56:22;;;;;;;12.93;6.53;;;13.20;99.90;;;;;;4985554;28;37767;-78
2022/10/10 08:58:54;;;;;;;10.48;6.15;;;13.30;99.90;;;;;;4990245;28;37871;-77
2022/10/10 09:01:24;;;;;;;12.48;6.65;;;13.30;99.90;;;;;;4973092;28;42350;-78
2022/10/10 09:03:51;;;;;;;12.95;6.30;;;13.40;99.90;;;;;;4978999;28;39329;-76
2022/10/10 09:06:55;;;;;;;9.65;5.70;;;13.40;99.90;;;;;;4974063;28;39795;-76
2022/10/10 09:09:24;;;;;;;12.73;6.43;;;13.50;99.90;;;;;;4997819;28;39132;-76
2022/10/10 09:11:57;;;;;;;11.65;6.07;;;13.60;99.90;;;;;;4981515;28;40736;-76
2022/10/10 09:14:58;;;;;;;14.10;7.13;;;13.60;99.90;;;;;;4988283;28;38392;-76
2022/10/10 09:17:33;;;;;;;11.00;5.40;;;13.80;99.90;;;;;;4984591;28;39840;-78
2022/10/10 09:20:21;;;;;;;11.73;6.43;;;13.90;99.90;;;;;;4996631;28;37547;-77
2022/10/10 09:23:02;;;;;;;20.38;6.10;;;14.10;99.90;;;;;;4984893;28;48467;-75
2022/10/10 09:25:36;;;;;;;14.68;5.22;;;14.20;99.90;;;;;;4991491;28;46683;-78
2022/10/10 09:28:18;;;;;;;9.80;5.82;;;14.40;99.90;;;;;;4972709;28;38458;-78
2022/10/10 09:30:50;;;;;;;10.88;5.18;;;14.60;99.90;;;;;;4990266;28;37707;-78
2022/10/10 09:33:30;;;;;;;9.30;5.57;;;14.70;99.90;;;;;;4990915;28;39651;-79
2022/10/10 09:35:59;;;;;;;14.98;5.82;;;14.80;99.90;;;;;;4987729;28;38150;-79
2022/10/10 09:38:48;;;;;;;10.55;4.80;;;14.90;99.90;;;;;;4990046;28;37700;-78
2022/10/10 09:41:45;;;;;;;10.40;4.15;;;15.10;99.90;;;;;;4990815;28;37317;-81
2022/10/10 09:44:13;;;;;;;12.35;5.22;;;15.30;99.90;;;;;;4961868;28;38864;-78
2022/10/10 09:46:40;;;;;;;8.93;4.80;;;15.20;99.90;;;;;;4990919;28;38965;-79
2022/10/10 09:49:06;;;;;;;11.38;5.00;;;15.20;99.90;;;;;;4988070;28;38061;-81
2022/10/10 09:51:32;;;;;;;10.23;4.55;;;15.10;99.90;;;;;;4971726;28;36778;-80
2022/10/10 09:53:59;;;;;;;11.73;4.40;;;15.10;99.90;;;;;;4971649;28;39235;-82
2022/10/10 09:56:30;;;;;;;8.43;3.90;;;15.20;99.90;;;;;;4972049;28;38754;-82
2022/10/10 09:58:56;;;;;;;10.88;4.15;;;15.40;99.90;;;;;;4987326;28;38563;-81
2022/10/10 10:01:24;;;;;;;12.60;4.70;;;15.30;99.90;;;;;;4989352;28;36000;-82
2022/10/10 10:04:09;;;;;;;12.75;5.07;;;15.40;99.90;;;;;;4990080;28;38961;-82
2022/10/10 10:06:35;;;;;;;10.30;4.35;;;15.50;99.90;;;;;;4989918;28;47243;-80
2022/10/10 10:09:04;;;;;;;10.30;5.20;;;15.70;99.90;;;;;;4971607;28;39855;-78
2022/10/10 10:11:40;;;;;;;8.65;4.07;;;15.80;99.90;;;;;;4971402;28;47220;-81
2022/10/10 10:14:28;;;;;;;13.75;4.95;;;16.00;99.90;;;;;;4968079;28;39606;-82
2022/10/10 10:17:04;;;;;;;10.15;4.90;;;16.00;99.90;;;;;;4988363;28;38376;-80
2022/10/10 10:19:34;;;;;;;9.88;4.35;;;16.10;99.90;;;;;;4988677;28;47152;-82
2022/10/10 10:22:01;;;;;;;11.75;4.63;;;16.20;99.90;;;;;;4972989;28;38005;-80
2022/10/10 10:24:35;;;;;;;12.10;4.10;;;16.40;99.90;;;;;;4988018;28;38631;-81
2022/10/10 10:27:16;;;;;;;12.77;4.80;;;16.40;99.90;;;;;;4971715;28;38871;-79
2022/10/10 10:29:50;;;;;;;13.23;4.88;;;16.40;99.90;;;;;;4972027;28;38520;-80
2022/10/10 10:32:34;;;;;;;13.30;5.20;;;16.30;99.90;;;;;;4965441;28;37805;-81
2022/10/10 10:35:28;;;;;;;11.65;4.40;;;16.30;99.90;;;;;;4976599;28;40551;-82
2022/10/10 10:38:00;;;;;;;8.65;3.72;;;16.30;99.90;;;;;;4985840;28;47226;-81
2022/10/10 10:40:43;;;;;;;16.30;4.70;;;16.20;99.90;;;;;;4971379;28;39834;-79
2022/10/10 10:43:37;;;;;;;10.07;4.88;;;16.20;99.90;;;;;;4983429;28;37201;-80
2022/10/10 10:46:37;;;;;;;6.28;3.80;;;16.10;99.90;;;;;;4981457;28;39381;-80
2022/10/10 10:49:14;;;;;;;11.98;4.40;;;16.20;99.90;;;;;;4986410;28;47286;-80
2022/10/10 10:52:05;;;;;;;13.05;5.63;;;16.20;99.90;;;;;;4972155;28;38105;-79
2022/10/10 10:54:53;;;;;;;12.50;5.50;;;16.20;99.90;;;;;;4988854;28;48983;-81
2022/10/10 10:57:38;;;;;;;12.98;4.70;;;16.20;99.90;;;;;;4987600;28;39334;-82
2022/10/10 11:00:16;;;;;;;9.75;4.60;;;16.20;99.90;;;;;;4970426;28;39557;-80
2022/10/10 11:03:09;;;;;;;14.20;5.22;;;16.00;99.90;;;;;;4968465;28;47131;-81
2022/10/10 11:05:53;;;;;;;12.75;4.88;;;16.00;99.90;;;;;;4966942;28;47149;-78
2022/10/10 11:08:19;;;;;;;8.15;4.60;;;15.90;99.90;;;;;;4968406;28;39202;-78
2022/10/10 11:11:09;;;;;;;12.25;4.80;;;15.90;99.90;;;;;;4969895;28;38576;-78
2022/10/10 11:13:54;;;;;;;12.02;4.72;;;16.00;99.90;;;;;;4979569;28;48778;-82
2022/10/10 11:16:29;;;;;;;8.95;4.32;;;16.00;99.90;;;;;;4984602;28;37427;-80
2022/10/10 11:19:13;;;;;;;15.65;5.32;;;16.00;99.90;;;;;;4969285;28;39149;-80
2022/10/10 11:22:18;;;;;;;12.93;4.43;;;16.00;99.90;;;;;;4985692;28;48276;-81
2022/10/10 11:25:01;;;;;;;18.38;5.47;;;15.90;99.90;;;;;;4986342;28;47006;-80
2022/10/10 11:27:35;;;;;;;10.43;4.05;;;15.90;99.90;;;;;;4975696;28;37673;-82
2022/10/10 11:30:05;;;;;;;8.35;4.90;;;15.90;99.90;;;;;;4965844;28;39314;-79
2022/10/10 11:33:09;;;;;;;17.45;6.18;;;15.90;99.90;;;;;;4963158;28;47048;-79
2022/10/10 11:35:51;;;;;;;12.23;5.25;;;15.90;99.90;;;;;;4968326;28;48639;-81
2022/10/10 11:38:29;;;;;;;14.88;5.50;;;15.90;99.90;;;;;;4968970;28;38211;-80
2022/10/10 11:41:01;;;;;;;10.48;5.03;;;15.90;99.90;;;;;;4997165;28;39293;-80
2022/10/10 11:43:41;;;;;;;7.05;4.22;;;15.80;99.90;;;;;;4969538;28;38407;-80
2022/10/10 11:46:39;;;;;;;12.30;4.60;;;15.70;99.90;;;;;;4971467;28;38963;-80
2022/10/10 11:49:11;;;;;;;11.55;4.45;;;15.70;99.90;;;;;;4984264;28;38073;-82
2022/10/10 11:52:12;;;;;;;11.27;5.05;;;15.60;99.90;;;;;;4991418;28;38060;-80
2022/10/10 11:54:44;;;;;;;11.13;5.47;;;15.60;99.90;;;;;;4986753;28;48817;-81
2022/10/10 11:57:17;;;;;;;6.75;3.47;;;15.60;99.90;;;;;;4987445;28;38701;-79
2022/10/10 11:59:50;;;;;;;10.25;3.63;;;15.60;99.90;;;;;;4964994;28;37561;-77
2022/10/10 12:02:25;;;;;;;7.22;2.83;;;15.50;99.90;;;;;;4951779;28;40478;-80
2022/10/10 12:04:51;;;;;;;6.32;2.53;;;15.50;99.90;;;;;;4965089;28;38786;-79
2022/10/10 12:07:42;;;;;;;6.00;2.75;;;15.40;99.90;;;;;;4988544;28;38387;-78
2022/10/10 12:10:15;;;;;;;6.15;3.15;;;15.40;99.90;;;;;;4969606;28;38029;-79
2022/10/10 12:12:43;;;;;;;;;;;15.40;99.90;;;;;;4987914;28;39585;-78
2022/10/10 12:15:21;;;;;;;5.60;2.58;;;15.30;99.90;;;;;;4988486;28;38818;-79
2022/10/10 12:17:47;;;;;;;6.30;2.42;;;15.20;99.90;;;;;;4969978;28;39795;-79
2022/10/10 12:20:13;;;;;;;7.25;2.42;;;15.20;99.90;;;;;;4988467;28;37251;-78
2022/10/10 12:22:39;;;;;;;4.38;1.40;;;15.20;99.90;;;;;;4988589;28;38787;-80
2022/10/10 12:25:34;;;;;;;4.97;2.08;;;15.10;99.90;;;;;;4987006;28;38924;-80
2022/10/10 12:28:14;;;;;;;5.38;1.80;;;15.00;99.90;;;;;;4987327;28;38196;-78
2022/10/10 12:30:55;;;;;;;6.10;1.75;;;15.00;99.90;;;;;;4970378;28;47257;-79
2022/10/10 12:33:43;;;;;;;2.03;1.40;;;14.90;99.90;;;;;;4999164;28;39884;-77
2022/10/10 12:36:18;;;;;;;2.50;1.15;;;14.90;99.90;;;;;;4971242;28;39086;-87
2022/10/10 12:39:10;;;;;;;5.60;1.90;;;14.90;99.90;;;;;;4991418;28;38279;-78
2022/10/10 12:41:46;;;;;;;7.20;1.80;;;14.90;99.90;;;;;;4973542;28;47060;-78
2022/10/10 12:44:20;;;;;;;5.75;1.80;;;14.90;99.90;;;;;;4990170;28;40114;-79
2022/10/10 12:46:49;;;;;;;6.18;2.40;;;14.80;99.90;;;;;;4990502;28;37976;-76
2022/10/10 12:49:25;;;;;;;5.78;2.25;;;14.80;99.90;;;;;;4972580;28;39802;-77
2022/10/10 12:52:26;;;;;;;5.32;2.10;;;14.90;99.90;;;;;;4986192;28;37614;-77
2022/10/10 12:55:00;;;;;;;5.72;2.38;;;14.80;99.90;;;;;;4963882;28;47449;-76
2022/10/10 12:57:37;;;;;;;8.00;1.50;;;14.80;99.90;;;;;;4987588;28;37894;-77
2022/10/10 13:00:05;;;;;;;3.65;1.80;;;14.80;99.90;;;;;;4991521;28;38158;-78
2022/10/10 13:02:33;;;;;;;4.85;0.80;;;14.70;99.90;;;;;;4989597;28;48531;-75
2022/10/10 13:05:01;;;;;;;5.45;0.90;;;14.60;99.90;;;;;;4971678;28;39281;-77
2022/10/10 13:07:28;;;;;;;4.05;1.10;;;14.50;99.90;;;;;;4970280;28;40056;-79